Rixey, Arkansas
Current Conditions -  °F | °C
As of 7:53 AM on Wednesday 26 Nov 2014 (Local Time) from KLIT Reporting Station
Broken Clouds Broken Clouds  
Wind Chill: 30°   Ceiling: 13000
Heat Index: 36°   Visibility: 10mi
Dew Point: 30°   Wind: 7mph
Humidity: 79%   Direction: 180°S
Pressure: 30.08"   Gusts: NA
Location:  34.757°N, 92.1411°W
Report Text: KLIT 261353Z 18006KT 10SM BKN130 BKN250 02/M01 A3008 RMK AO2 SLP189 T00221011
Loading
Personal Weather Stations






























Interactive Weather Map New forecast layout! Learn more

10-Day Weather Forecast

Advertisements
Track Severe Weather on mobile